Time;durP1;ratioP1;P1;durP2;ratioP2;P2;SDS_P1;SDS_P2;PMS_P1;PMS_P2;Temp;Humidity;BMP_temperature;BMP_pressure;BME280_temperature;BME280_humidity;BME280_pressure;Samples;Min_cycle;Max_cycle;Signal;HPM_P1;HPM_P2
2023/09/09 00:02:15;;;;;;;20.20;18.30;;;20.30;99.90;;;;;;5028512;28;20226;-52
2023/09/09 00:04:42;;;;;;;20.20;18.47;;;20.30;99.90;;;;;;5031498;28;20241;-52
2023/09/09 00:07:11;;;;;;;20.50;18.40;;;20.30;99.90;;;;;;5031721;28;20252;-52
2023/09/09 00:09:39;;;;;;;20.87;18.87;;;20.40;99.90;;;;;;5030000;28;20194;-52
2023/09/09 00:12:06;;;;;;;20.53;18.80;;;20.30;99.90;;;;;;5024622;28;20225;-52
2023/09/09 00:14:33;;;;;;;18.80;17.10;;;20.30;99.90;;;;;;5029351;28;20686;-52
2023/09/09 00:17:00;;;;;;;19.57;17.83;;;20.30;99.90;;;;;;5031637;28;20596;-52
2023/09/09 00:19:28;;;;;;;18.77;17.27;;;20.30;99.90;;;;;;5030287;28;20275;-53
2023/09/09 00:21:55;;;;;;;19.97;18.27;;;20.30;99.90;;;;;;5027034;28;20203;-53
2023/09/09 00:24:23;;;;;;;18.70;17.10;;;20.20;99.90;;;;;;5026327;28;20550;-53
2023/09/09 00:26:50;;;;;;;20.10;18.23;;;20.20;99.90;;;;;;5029402;28;20206;-53
2023/09/09 00:29:19;;;;;;;20.00;18.40;;;20.10;99.90;;;;;;5029854;28;20280;-53
2023/09/09 00:31:46;;;;;;;19.40;17.60;;;20.10;99.90;;;;;;5028315;28;20207;-53
2023/09/09 00:34:13;;;;;;;19.20;17.50;;;20.10;99.90;;;;;;5023678;28;20754;-53
2023/09/09 00:36:40;;;;;;;18.40;17.00;;;20.10;99.90;;;;;;5028210;28;20203;-53
2023/09/09 00:39:08;;;;;;;19.90;18.00;;;20.10;99.90;;;;;;5029117;28;20218;-52
2023/09/09 00:41:36;;;;;;;18.77;17.17;;;20.10;99.90;;;;;;5021626;28;20666;-53
2023/09/09 00:44:04;;;;;;;17.23;15.53;;;20.10;99.90;;;;;;5024374;28;20262;-53
2023/09/09 00:46:32;;;;;;;18.97;17.37;;;20.10;99.90;;;;;;5027082;28;20190;-53
2023/09/09 00:49:00;;;;;;;16.77;15.37;;;20.00;99.90;;;;;;5031331;28;20284;-53
2023/09/09 00:51:27;;;;;;;18.23;16.70;;;20.00;99.90;;;;;;5029190;28;20573;-53
2023/09/09 00:53:54;;;;;;;16.90;15.40;;;20.00;99.90;;;;;;5031229;28;20272;-53
2023/09/09 00:56:21;;;;;;;17.87;16.33;;;19.90;99.90;;;;;;5030869;28;20257;-53
2023/09/09 00:58:49;;;;;;;16.87;15.57;;;19.80;99.90;;;;;;5031076;28;20292;-53
2023/09/09 01:01:16;;;;;;;18.60;16.90;;;19.80;99.90;;;;;;5020348;28;20199;-53
2023/09/09 01:03:43;;;;;;;19.33;17.53;;;19.80;99.90;;;;;;5028932;28;20195;-53
2023/09/09 01:06:11;;;;;;;17.80;16.20;;;19.80;99.90;;;;;;5030475;28;20230;-53
2023/09/09 01:08:38;;;;;;;18.97;16.93;;;19.70;99.90;;;;;;5030974;28;20218;-53
2023/09/09 01:11:05;;;;;;;18.43;16.90;;;19.70;99.90;;;;;;5021763;28;20642;-53
2023/09/09 01:13:32;;;;;;;18.13;16.60;;;19.60;99.90;;;;;;5030830;28;20199;-53
2023/09/09 01:16:01;;;;;;;17.37;15.93;;;19.60;99.90;;;;;;5030476;28;20210;-53
2023/09/09 01:18:30;;;;;;;17.33;15.93;;;19.60;99.90;;;;;;5030320;28;20226;-53
2023/09/09 01:21:04;;;;;;;20.20;18.40;;;19.60;99.90;;;;;;5026222;28;20194;-53
2023/09/09 01:23:32;;;;;;;17.67;16.17;;;19.60;99.90;;;;;;5021963;28;20203;-53
2023/09/09 01:25:59;;;;;;;19.03;17.43;;;19.50;99.90;;;;;;5022265;28;20283;-53
2023/09/09 01:28:26;;;;;;;17.50;15.90;;;19.50;99.90;;;;;;5030649;28;20649;-53
2023/09/09 01:30:54;;;;;;;18.40;16.53;;;19.50;99.90;;;;;;5026718;28;20260;-53
2023/09/09 01:33:21;;;;;;;18.57;16.93;;;19.50;99.90;;;;;;5027010;28;20198;-53
2023/09/09 01:35:47;;;;;;;18.70;17.10;;;19.50;99.90;;;;;;5031961;28;20673;-53
2023/09/09 01:38:14;;;;;;;18.63;17.03;;;19.50;99.90;;;;;;5034583;28;20717;-53
2023/09/09 01:40:43;;;;;;;17.50;16.10;;;19.50;99.90;;;;;;5032055;28;20252;-53
2023/09/09 01:43:10;;;;;;;20.17;18.33;;;19.60;99.90;;;;;;5024140;28;20202;-53
2023/09/09 01:45:37;;;;;;;18.97;17.27;;;19.60;99.90;;;;;;5034086;28;20210;-53
2023/09/09 01:48:05;;;;;;;18.43;16.97;;;19.50;99.90;;;;;;5034339;28;20218;-53
2023/09/09 01:50:32;;;;;;;17.27;15.77;;;19.50;99.90;;;;;;5032155;28;20256;-53
2023/09/09 01:52:59;;;;;;;18.67;17.00;;;19.50;99.90;;;;;;5031636;28;20677;-53
2023/09/09 01:55:26;;;;;;;16.80;15.50;;;19.60;99.90;;;;;;5032924;28;20198;-53
2023/09/09 01:57:55;;;;;;;17.67;16.10;;;19.50;99.90;;;;;;5034405;28;20300;-53
2023/09/09 02:00:22;;;;;;;16.87;15.57;;;19.60;99.90;;;;;;5031990;28;20195;-53
2023/09/09 02:02:49;;;;;;;17.57;16.07;;;19.60;99.90;;;;;;5034172;28;20202;-53
2023/09/09 02:05:16;;;;;;;17.07;15.70;;;19.50;99.90;;;;;;5033921;28;20256;-53
2023/09/09 02:07:43;;;;;;;17.67;15.97;;;19.50;99.90;;;;;;5031180;28;20227;-53
2023/09/09 02:10:10;;;;;;;17.13;15.83;;;19.40;99.90;;;;;;5033140;28;20203;-53
2023/09/09 02:12:37;;;;;;;18.23;16.83;;;19.40;99.90;;;;;;5034058;28;20198;-53
2023/09/09 02:15:06;;;;;;;17.90;16.40;;;19.40;99.90;;;;;;5033727;28;20202;-53
2023/09/09 02:17:36;;;;;;;19.27;17.60;;;19.40;99.90;;;;;;5033943;28;20226;-53
2023/09/09 02:20:05;;;;;;;18.30;16.80;;;19.40;99.90;;;;;;5031719;28;20320;-53
2023/09/09 02:22:32;;;;;;;17.50;16.20;;;19.40;99.90;;;;;;5033961;28;20736;-53
2023/09/09 02:24:59;;;;;;;17.50;15.87;;;19.30;99.90;;;;;;5029205;28;20198;-52
2023/09/09 02:27:26;;;;;;;16.90;15.33;;;19.30;99.90;;;;;;5026940;28;20194;-53
2023/09/09 02:29:53;;;;;;;18.43;16.93;;;19.20;99.90;;;;;;5031238;28;21008;-53
2023/09/09 02:32:21;;;;;;;16.67;15.23;;;19.10;99.90;;;;;;5033584;28;20573;-53
2023/09/09 02:34:48;;;;;;;17.80;16.30;;;19.00;99.90;;;;;;5033275;28;20263;-53
2023/09/09 02:37:17;;;;;;;15.53;14.33;;;19.00;99.90;;;;;;5030645;28;20276;-53
2023/09/09 02:39:45;;;;;;;16.40;14.97;;;18.90;99.90;;;;;;5033662;28;20226;-53
2023/09/09 02:42:14;;;;;;;18.53;16.97;;;18.80;99.90;;;;;;5030058;28;20202;-53
2023/09/09 02:44:41;;;;;;;17.20;15.60;;;18.80;99.90;;;;;;5031158;28;20558;-52
2023/09/09 02:47:09;;;;;;;17.57;16.10;;;18.80;99.90;;;;;;5030216;28;20249;-53
2023/09/09 02:49:38;;;;;;;19.17;17.57;;;18.80;99.90;;;;;;5033366;28;20222;-53
2023/09/09 02:52:06;;;;;;;20.23;18.57;;;18.70;99.90;;;;;;5032113;28;20268;-53
2023/09/09 02:54:34;;;;;;;18.30;16.80;;;18.70;99.90;;;;;;5026887;28;20202;-52
2023/09/09 02:57:01;;;;;;;19.83;17.97;;;18.70;99.90;;;;;;5019841;28;20663;-52
2023/09/09 02:59:28;;;;;;;19.87;18.17;;;18.70;99.90;;;;;;5026652;28;20214;-52
2023/09/09 03:01:55;;;;;;;22.90;20.80;;;18.70;99.90;;;;;;5028810;28;20206;-53
2023/09/09 03:04:22;;;;;;;19.57;17.93;;;18.60;99.90;;;;;;5032166;28;20264;-53
2023/09/09 03:06:50;;;;;;;18.47;16.90;;;18.60;99.90;;;;;;5027637;28;20199;-53
2023/09/09 03:09:21;;;;;;;20.80;18.90;;;18.60;99.90;;;;;;5024449;28;20223;-52
2023/09/09 03:11:48;;;;;;;18.33;16.83;;;18.60;99.90;;;;;;5027686;28;20206;-52
2023/09/09 03:14:19;;;;;;;18.87;17.27;;;18.60;99.90;;;;;;5031194;28;20205;-53
2023/09/09 03:16:46;;;;;;;18.97;17.37;;;18.60;99.90;;;;;;5026597;28;20705;-52
2023/09/09 03:19:13;;;;;;;19.27;17.67;;;18.60;99.90;;;;;;5024642;28;20223;-52
2023/09/09 03:21:40;;;;;;;18.93;17.43;;;18.60;99.90;;;;;;5031287;28;20242;-53
2023/09/09 03:24:09;;;;;;;18.23;16.73;;;18.60;99.90;;;;;;5027555;28;20247;-52
2023/09/09 03:26:36;;;;;;;20.70;18.87;;;18.60;99.90;;;;;;5023898;28;20203;-52
2023/09/09 03:29:03;;;;;;;18.77;17.17;;;18.50;99.90;;;;;;5021159;28;20253;-52
2023/09/09 03:31:30;;;;;;;19.93;18.17;;;18.60;99.90;;;;;;5031187;28;20289;-52
2023/09/09 03:33:57;;;;;;;18.73;17.33;;;18.50;99.90;;;;;;5031527;28;20198;-52
2023/09/09 03:36:24;;;;;;;17.20;15.83;;;18.60;99.90;;;;;;5029298;28;20206;-52
2023/09/09 03:38:51;;;;;;;19.53;17.63;;;18.50;99.90;;;;;;5024583;28;20296;-52
2023/09/09 03:41:19;;;;;;;19.13;17.40;;;18.60;99.90;;;;;;5026814;28;20199;-52
2023/09/09 03:43:46;;;;;;;18.60;16.97;;;18.60;99.90;;;;;;5023859;28;20626;-52
2023/09/09 03:46:13;;;;;;;18.93;17.27;;;18.60;99.90;;;;;;5028001;28;20206;-53
2023/09/09 03:48:40;;;;;;;19.60;17.70;;;18.60;99.90;;;;;;5024473;28;20222;-52
2023/09/09 03:51:07;;;;;;;20.20;18.43;;;18.50;99.90;;;;;;5022256;28;20200;-52
2023/09/09 03:53:34;;;;;;;19.20;17.60;;;18.50;99.90;;;;;;5031237;28;20198;-52
2023/09/09 03:56:01;;;;;;;20.43;18.70;;;18.40;99.90;;;;;;5028711;28;20206;-52
2023/09/09 03:58:30;;;;;;;18.90;17.23;;;18.50;99.90;;;;;;5028261;28;20644;-52
2023/09/09 04:01:05;;;;;;;20.57;18.73;;;18.50;99.90;;;;;;5028129;28;20202;-53
2023/09/09 04:03:34;;;;;;;19.57;17.80;;;18.40;99.90;;;;;;5030576;28;20234;-53
2023/09/09 04:06:06;;;;;;;18.40;16.83;;;18.50;99.90;;;;;;5028885;28;20198;-53
2023/09/09 04:08:33;;;;;;;18.93;17.43;;;18.40;99.90;;;;;;5023633;28;20277;-52
2023/09/09 04:11:00;;;;;;;17.97;16.47;;;18.40;99.90;;;;;;5030280;28;20201;-52
2023/09/09 04:13:28;;;;;;;16.97;15.57;;;18.40;99.90;;;;;;5030435;28;20256;-52
2023/09/09 04:15:56;;;;;;;19.27;17.67;;;18.40;99.90;;;;;;5029955;28;20202;-52
2023/09/09 04:18:23;;;;;;;17.57;16.03;;;18.40;99.90;;;;;;5024775;28;20226;-52
2023/09/09 04:20:50;;;;;;;18.47;16.73;;;18.40;99.90;;;;;;5027602;28;20675;-52
2023/09/09 04:23:18;;;;;;;18.03;16.53;;;18.40;99.90;;;;;;5030588;28;20264;-52
2023/09/09 04:25:45;;;;;;;18.30;16.87;;;18.40;99.90;;;;;;5018564;28;20203;-52
2023/09/09 04:28:12;;;;;;;19.27;17.47;;;18.50;99.90;;;;;;5027635;28;20222;-52
2023/09/09 04:30:41;;;;;;;18.93;17.40;;;18.50;99.90;;;;;;5028915;28;20230;-52
2023/09/09 04:33:11;;;;;;;18.13;16.60;;;18.50;99.90;;;;;;5029270;28;20249;-52
2023/09/09 04:35:38;;;;;;;18.43;16.93;;;18.50;99.90;;;;;;5023915;28;20198;-52
2023/09/09 04:38:06;;;;;;;16.80;15.40;;;18.50;99.90;;;;;;5027617;28;20368;-53
2023/09/09 04:40:35;;;;;;;20.40;18.60;;;18.40;99.90;;;;;;5024589;28;20715;-52
2023/09/09 04:43:02;;;;;;;18.17;16.57;;;18.40;99.90;;;;;;5026242;28;20225;-52
2023/09/09 04:45:29;;;;;;;17.20;15.73;;;18.30;99.90;;;;;;5017739;28;20206;-52
2023/09/09 04:47:57;;;;;;;17.43;16.03;;;18.20;99.90;;;;;;5022127;28;20701;-52
2023/09/09 04:50:24;;;;;;;19.07;17.47;;;18.20;99.90;;;;;;5022334;28;20223;-52
2023/09/09 04:52:51;;;;;;;18.00;16.47;;;18.20;99.90;;;;;;5020694;28;20678;-52
2023/09/09 04:55:18;;;;;;;18.20;16.80;;;18.10;99.90;;;;;;5020207;28;20266;-52
2023/09/09 04:57:45;;;;;;;22.07;20.00;;;18.10;99.90;;;;;;5016607;28;20272;-52
2023/09/09 05:00:13;;;;;;;18.30;16.90;;;18.20;99.90;;;;;;5023189;28;20627;-52
2023/09/09 05:02:40;;;;;;;19.63;17.70;;;18.10;99.90;;;;;;5014832;28;20285;-52
2023/09/09 05:05:09;;;;;;;21.17;19.30;;;18.10;99.90;;;;;;5022350;28;20202;-52
2023/09/09 05:07:37;;;;;;;20.87;19.17;;;18.10;99.90;;;;;;5020567;28;20251;-52
2023/09/09 05:10:05;;;;;;;20.47;18.60;;;18.10;99.90;;;;;;5019713;28;20229;-52
2023/09/09 05:12:32;;;;;;;21.90;20.00;;;18.10;99.90;;;;;;5021811;28;20202;-52
2023/09/09 05:15:00;;;;;;;20.17;18.50;;;18.10;99.90;;;;;;5029317;28;20249;-52
2023/09/09 05:17:27;;;;;;;22.43;20.40;;;18.10;99.90;;;;;;5023183;28;20207;-52
2023/09/09 05:19:54;;;;;;;23.50;18.83;;;18.20;99.90;;;;;;5020144;28;20555;-52
2023/09/09 05:22:23;;;;;;;20.23;18.57;;;18.20;99.90;;;;;;5015481;28;20203;-52
2023/09/09 05:24:50;;;;;;;21.40;19.40;;;18.20;99.90;;;;;;5014751;28;20263;-52
2023/09/09 05:27:17;;;;;;;24.60;22.30;;;18.30;99.90;;;;;;5020623;28;20199;-53
2023/09/09 05:29:44;;;;;;;21.17;19.37;;;18.30;99.90;;;;;;5021376;28;20246;-52
2023/09/09 05:32:11;;;;;;;21.33;19.50;;;18.40;99.90;;;;;;5023407;28;20234;-52
2023/09/09 05:34:38;;;;;;;24.40;22.20;;;18.50;99.90;;;;;;5015557;28;20203;-53
2023/09/09 05:37:05;;;;;;;24.50;22.30;;;18.50;99.90;;;;;;5023224;28;20558;-52
2023/09/09 05:39:33;;;;;;;22.33;20.07;;;18.70;99.90;;;;;;5025940;28;20280;-56
2023/09/09 05:42:00;;;;;;;25.07;22.67;;;18.80;99.90;;;;;;5028348;28;20194;-52
2023/09/09 05:44:27;;;;;;;24.87;22.67;;;18.90;99.90;;;;;;5029005;28;20202;-53
2023/09/09 05:46:54;;;;;;;24.40;22.17;;;19.00;99.90;;;;;;5028991;28;20207;-52
2023/09/09 05:49:22;;;;;;;23.53;21.43;;;19.50;99.90;;;;;;5029002;28;20631;-53
2023/09/09 05:51:49;;;;;;;23.27;21.27;;;20.30;99.90;;;;;;5023878;28;20290;-53
2023/09/09 05:54:19;;;;;;;23.90;21.60;;;21.20;99.90;;;;;;5003683;28;20234;-53
2023/09/09 05:56:48;;;;;;;22.20;20.20;;;22.00;99.90;;;;;;5024677;28;20215;-53
2023/09/09 05:59:18;;;;;;;23.53;21.60;;;22.70;99.90;;;;;;5029184;28;20602;-53
2023/09/09 06:01:45;;;;;;;20.70;18.83;;;23.40;99.90;;;;;;5029131;28;20297;-53
2023/09/09 06:04:15;;;;;;;21.07;19.17;;;24.00;99.90;;;;;;5021429;28;20249;-53
2023/09/09 06:06:42;;;;;;;21.20;19.20;;;24.70;99.90;;;;;;5024827;28;20230;-59
2023/09/09 06:09:09;;;;;;;26.97;20.83;;;25.00;99.90;;;;;;5024392;28;20265;-58
2023/09/09 06:11:36;;;;;;;18.53;17.03;;;25.00;99.90;;;;;;5029686;28;20745;-59
2023/09/09 06:14:05;;;;;;;18.23;16.73;;;25.40;99.90;;;;;;5030124;28;20199;-60
2023/09/09 06:16:32;;;;;;;18.23;16.63;;;26.00;99.90;;;;;;5029849;28;20253;-59
2023/09/09 06:18:59;;;;;;;18.13;16.73;;;26.40;99.90;;;;;;5030706;28;20654;-61
2023/09/09 06:21:26;;;;;;;20.93;19.10;;;26.80;99.90;;;;;;5033488;28;20603;-61
2023/09/09 06:23:54;;;;;;;20.77;19.13;;;26.90;99.90;;;;;;5029520;28;20285;-61
2023/09/09 06:26:21;;;;;;;18.38;16.95;;;26.70;99.90;;;;;;5020913;28;20207;-61
2023/09/09 06:28:48;;;;;;;16.73;15.52;;;27.10;99.90;;;;;;5021863;28;20362;-60
2023/09/09 06:31:16;;;;;;;16.85;15.45;;;27.50;99.90;;;;;;5013723;28;20242;-60
2023/09/09 06:33:43;;;;;;;18.45;16.98;;;28.00;99.90;;;;;;5013445;28;20199;-61
2023/09/09 06:36:11;;;;;;;17.83;16.25;;;28.60;99.90;;;;;;5013176;28;20207;-61
2023/09/09 06:38:38;;;;;;;18.58;17.02;;;28.80;99.90;;;;;;5013135;28;20750;-54
2023/09/09 06:41:05;;;;;;;19.60;18.17;;;29.20;99.90;;;;;;5032003;28;20713;-54
2023/09/09 06:43:32;;;;;;;16.42;15.10;;;29.30;99.90;;;;;;5015970;28;20662;-54
2023/09/09 06:45:59;;;;;;;16.42;15.13;;;29.60;99.90;;;;;;5011139;28;20207;-54
2023/09/09 06:48:29;;;;;;;16.88;15.48;;;30.00;99.90;;;;;;5011761;28;20223;-54
2023/09/09 06:50:55;;;;;;;17.40;15.90;;;30.20;99.90;;;;;;5011389;28;20219;-54
2023/09/09 06:53:24;;;;;;;16.85;15.50;;;29.80;99.90;;;;;;5011368;28;20276;-54
2023/09/09 06:55:52;;;;;;;16.73;15.57;;;30.00;99.90;;;;;;5010906;28;20294;-54
2023/09/09 06:58:18;;;;;;;14.88;13.88;;;29.90;99.90;;;;;;5028295;28;20618;-54
2023/09/09 07:00:50;;;;;;;16.75;15.57;;;29.40;99.90;;;;;;5015684;28;20204;-54
2023/09/09 07:03:17;;;;;;;16.00;14.90;;;28.60;99.90;;;;;;5018368;28;20225;-54
2023/09/09 07:05:46;;;;;;;18.60;17.30;;;28.70;99.90;;;;;;5015319;28;20666;-55
2023/09/09 07:08:13;;;;;;;18.17;16.67;;;28.70;99.90;;;;;;5013212;28;20215;-54
2023/09/09 07:10:40;;;;;;;14.77;13.48;;;28.70;99.90;;;;;;5029328;28;20227;-55
2023/09/09 07:13:07;;;;;;;15.48;14.38;;;28.70;99.90;;;;;;5028283;28;20199;-54
2023/09/09 07:15:37;;;;;;;17.83;16.55;;;29.30;99.90;;;;;;5025464;28;20203;-54
2023/09/09 07:18:04;;;;;;;18.65;17.35;;;30.00;99.90;;;;;;5029173;28;20218;-54
2023/09/09 07:20:31;;;;;;;14.75;13.80;;;29.90;99.90;;;;;;5012850;28;20203;-55
2023/09/09 07:23:00;;;;;;;14.82;13.77;;;29.80;99.90;;;;;;5013571;28;20199;-54
2023/09/09 07:25:27;;;;;;;13.93;13.05;;;30.20;99.90;;;;;;5021789;28;20285;-55
2023/09/09 07:27:54;;;;;;;15.18;13.85;;;30.60;99.90;;;;;;5029850;28;20273;-54
2023/09/09 07:30:21;;;;;;;14.27;13.30;;;31.00;99.90;;;;;;5020412;28;20564;-54
2023/09/09 07:32:48;;;;;;;15.65;14.25;;;31.20;99.90;;;;;;5023383;28;20663;-54
2023/09/09 07:35:15;;;;;;;15.55;14.45;;;31.40;99.90;;;;;;5031022;28;20298;-54
2023/09/09 07:37:42;;;;;;;14.88;13.77;;;31.30;99.90;;;;;;5031040;28;20238;-54
2023/09/09 07:40:11;;;;;;;14.07;12.70;;;31.20;99.90;;;;;;5031272;28;20199;-54
2023/09/09 07:42:38;;;;;;;16.05;14.80;;;31.60;99.90;;;;;;5031132;28;20202;-54
2023/09/09 07:45:07;;;;;;;13.77;12.63;;;32.00;99.90;;;;;;5022763;28;20194;-54
2023/09/09 07:47:33;;;;;;;15.63;14.52;;;32.00;99.90;;;;;;5025375;28;20223;-54
2023/09/09 07:50:00;;;;;;;14.63;13.23;;;32.20;99.90;;;;;;5023020;28;20230;-54
2023/09/09 07:52:28;;;;;;;15.07;14.07;;;32.40;99.90;;;;;;5024917;28;20214;-54
2023/09/09 07:54:55;;;;;;;16.05;14.85;;;32.10;99.90;;;;;;5020433;28;20670;-54
2023/09/09 07:57:23;;;;;;;14.32;13.23;;;32.00;99.90;;;;;;5031235;28;20194;-54
2023/09/09 07:59:50;;;;;;;15.18;13.98;;;31.80;99.90;;;;;;5031000;28;20636;-54
2023/09/09 08:02:17;;;;;;;14.50;13.50;;;32.10;99.90;;;;;;5024435;28;20613;-54
2023/09/09 08:04:44;;;;;;;14.38;13.27;;;32.00;99.90;;;;;;5027322;28;20680;-54
2023/09/09 08:07:11;;;;;;;15.68;14.57;;;32.40;99.90;;;;;;5025249;28;20635;-54
2023/09/09 08:09:38;;;;;;;13.45;12.45;;;32.40;99.90;;;;;;5029765;28;20299;-54
2023/09/09 08:12:06;;;;;;;13.85;12.57;;;32.80;99.90;;;;;;5030267;28;20208;-54
2023/09/09 08:14:34;;;;;;;13.95;12.88;;;33.30;99.90;;;;;;5029147;28;20268;-54
2023/09/09 08:17:01;;;;;;;14.85;13.77;;;33.20;99.90;;;;;;5030704;28;20245;-54
2023/09/09 08:19:30;;;;;;;12.20;11.40;;;33.20;99.90;;;;;;5030189;28;20223;-54
2023/09/09 08:21:57;;;;;;;12.43;11.48;;;33.00;99.90;;;;;;5028647;28;20256;-54
2023/09/09 08:24:24;;;;;;;12.98;11.85;;;33.10;99.90;;;;;;5024207;28;20198;-54
2023/09/09 08:26:51;;;;;;;13.88;12.88;;;33.10;99.90;;;;;;5026436;28;20256;-54
2023/09/09 08:29:18;;;;;;;15.27;14.27;;;33.40;99.90;;;;;;5029857;28;20272;-54
2023/09/09 08:31:48;;;;;;;13.02;12.13;;;33.60;99.90;;;;;;5030200;28;20777;-54
2023/09/09 08:34:17;;;;;;;11.93;11.13;;;33.40;99.90;;;;;;5023966;28;20836;-54
2023/09/09 08:36:45;;;;;;;14.68;13.50;;;33.60;99.90;;;;;;5029588;28;20237;-54
2023/09/09 08:39:12;;;;;;;15.32;14.30;;;33.20;99.90;;;;;;5029823;28;20226;-54
2023/09/09 08:41:49;;;;;;;12.18;11.38;;;33.00;99.90;;;;;;5024543;28;20265;-54
2023/09/09 08:44:29;;;;;;;13.75;12.85;;;33.20;99.90;;;;;;5019746;28;20206;-54
2023/09/09 08:46:57;;;;;;;13.90;13.00;;;33.00;99.90;;;;;;5030035;28;20202;-54
2023/09/09 08:49:28;;;;;;;15.43;14.23;;;33.30;99.90;;;;;;5029975;28;20218;-54
2023/09/09 08:52:04;;;;;;;14.07;12.85;;;32.90;99.90;;;;;;5026817;28;20225;-54
2023/09/09 08:54:31;;;;;;;12.98;12.10;;;32.60;99.90;;;;;;5025466;28;20202;-54
2023/09/09 08:57:00;;;;;;;13.82;13.00;;;32.80;99.90;;;;;;5029999;28;20690;-57
2023/09/09 08:59:29;;;;;;;14.23;12.98;;;33.00;99.90;;;;;;5022924;28;20847;-54
2023/09/09 09:01:58;;;;;;;14.57;13.43;;;33.10;99.90;;;;;;5029663;28;20194;-54
2023/09/09 09:04:28;;;;;;;15.00;13.98;;;33.00;99.90;;;;;;5029811;28;20657;-54
2023/09/09 09:06:56;;;;;;;13.57;12.45;;;33.00;99.90;;;;;;5031422;28;20244;-54
2023/09/09 09:09:24;;;;;;;14.15;13.05;;;33.30;99.90;;;;;;5031102;28;20517;-55
2023/09/09 09:11:51;;;;;;;14.38;13.43;;;33.90;99.90;;;;;;5031200;28;20469;-54
2023/09/09 09:14:18;;;;;;;12.90;12.05;;;33.30;99.90;;;;;;5028399;28;20321;-54
2023/09/09 09:16:45;;;;;;;13.70;12.65;;;34.00;99.90;;;;;;5026996;28;20202;-54
2023/09/09 09:19:26;;;;;;;12.57;11.73;;;33.80;99.90;;;;;;5023461;28;20219;-54
2023/09/09 09:21:53;;;;;;;15.30;13.90;;;33.80;99.90;;;;;;5019047;28;20198;-63
2023/09/09 09:24:23;;;;;;;12.13;11.32;;;33.90;99.90;;;;;;5010986;28;20203;-61
2023/09/09 09:26:50;;;;;;;15.20;14.27;;;34.20;99.90;;;;;;5021076;28;20237;-55
2023/09/09 09:29:19;;;;;;;12.63;11.65;;;34.40;99.90;;;;;;5016392;28;20254;-55
2023/09/09 09:31:51;;;;;;;14.18;13.07;;;34.40;99.90;;;;;;5027346;28;20218;-54
2023/09/09 09:34:22;;;;;;;15.05;14.07;;;34.50;99.90;;;;;;5027610;28;20254;-55
2023/09/09 09:36:49;;;;;;;16.48;15.25;;;34.90;99.90;;;;;;5028067;28;20207;-54
2023/09/09 09:39:17;;;;;;;14.63;13.63;;;33.40;99.90;;;;;;5027796;28;20303;-54
2023/09/09 09:41:44;;;;;;;15.60;14.50;;;33.70;99.90;;;;;;5030569;28;20237;-54
2023/09/09 09:44:21;;;;;;;15.73;14.48;;;33.60;99.90;;;;;;5027316;28;20202;-54
2023/09/09 09:47:01;;;;;;;13.48;12.65;;;32.70;99.90;;;;;;5027069;28;20202;-55
2023/09/09 09:49:39;;;;;;;14.35;13.45;;;33.50;99.90;;;;;;5025591;28;20317;-55
2023/09/09 09:52:07;;;;;;;12.85;12.07;;;34.10;99.90;;;;;;5028793;28;20218;-55
2023/09/09 09:54:35;;;;;;;16.45;15.32;;;33.70;99.90;;;;;;5030393;28;20205;-54
2023/09/09 09:57:04;;;;;;;15.57;14.27;;;34.20;99.90;;;;;;5024777;28;20430;-54
2023/09/09 09:59:32;;;;;;;15.10;14.00;;;33.90;99.90;;;;;;5032959;28;20697;-54
2023/09/09 10:02:00;;;;;;;14.77;13.57;;;34.00;99.90;;;;;;5027149;28;20662;-55
2023/09/09 10:04:28;;;;;;;17.00;15.68;;;33.60;99.90;;;;;;5031984;28;20736;-54
2023/09/09 10:06:58;;;;;;;15.68;14.35;;;33.70;99.90;;;;;;5028958;28;20688;-54
2023/09/09 10:09:33;;;;;;;14.43;13.32;;;33.60;99.90;;;;;;5032442;28;20228;-54
2023/09/09 10:12:05;;;;;;;17.70;16.02;;;33.90;99.90;;;;;;5034124;28;20225;-54
2023/09/09 10:14:32;;;;;;;15.38;14.38;;;33.80;99.90;;;;;;5030352;28;20248;-54
2023/09/09 10:17:00;;;;;;;14.40;13.32;;;33.90;99.90;;;;;;5030031;28;20206;-54
2023/09/09 10:19:29;;;;;;;13.70;12.82;;;33.80;99.90;;;;;;5033185;28;20218;-54
2023/09/09 10:21:58;;;;;;;13.13;12.32;;;34.10;99.90;;;;;;5033486;28;20212;-54
2023/09/09 10:24:27;;;;;;;13.68;12.82;;;33.40;99.90;;;;;;5025299;28;20195;-54
2023/09/09 10:26:55;;;;;;;13.95;12.65;;;33.30;99.90;;;;;;5021643;28;20203;-53
2023/09/09 10:29:23;;;;;;;12.95;12.05;;;33.30;99.90;;;;;;5033059;28;20771;-54
2023/09/09 10:31:53;;;;;;;12.23;11.43;;;33.00;99.90;;;;;;5033378;28;20214;-54
2023/09/09 10:34:21;;;;;;;12.93;12.23;;;33.10;99.90;;;;;;5033574;28;20206;-54
2023/09/09 10:36:52;;;;;;;12.10;11.30;;;32.30;99.90;;;;;;5032964;28;20620;-54
2023/09/09 10:39:23;;;;;;;11.43;10.77;;;32.40;99.90;;;;;;5033110;28;20269;-54
2023/09/09 10:41:51;;;;;;;12.52;11.73;;;32.50;99.90;;;;;;5030647;28;20359;-54
2023/09/09 10:44:19;;;;;;;12.23;11.32;;;31.90;99.90;;;;;;5032240;28;20344;-54
2023/09/09 10:46:46;;;;;;;12.70;11.75;;;31.80;99.90;;;;;;5026450;28;20199;-54
2023/09/09 10:49:23;;;;;;;13.40;12.48;;;31.70;99.90;;;;;;5028897;28;20227;-54
2023/09/09 10:51:51;;;;;;;12.95;11.90;;;31.40;99.90;;;;;;5030506;28;20231;-54
2023/09/09 10:54:22;;;;;;;12.77;11.98;;;31.30;99.90;;;;;;5032094;28;20536;-54
2023/09/09 10:56:51;;;;;;;12.18;11.27;;;30.80;99.90;;;;;;5028902;28;20207;-53
2023/09/09 10:59:21;;;;;;;12.68;11.88;;;30.30;99.90;;;;;;5027219;28;20222;-54
2023/09/09 11:01:49;;;;;;;11.30;10.60;;;30.40;99.90;;;;;;5027338;28;20203;-54
2023/09/09 11:04:21;;;;;;;12.75;11.90;;;30.20;99.90;;;;;;5030885;28;20285;-54
2023/09/09 11:07:08;;;;;;;12.25;11.35;;;30.00;99.90;;;;;;5031518;28;20264;-54
2023/09/09 11:09:37;;;;;;;12.02;11.18;;;29.80;99.90;;;;;;5028798;28;20297;-54
2023/09/09 11:12:14;;;;;;;12.27;11.32;;;29.90;99.90;;;;;;5025489;28;20222;-54
2023/09/09 11:14:58;;;;;;;12.30;11.27;;;30.00;99.90;;;;;;5031036;28;20240;-54
2023/09/09 11:17:28;;;;;;;12.82;11.73;;;29.90;99.90;;;;;;5023116;28;20684;-54
2023/09/09 11:19:55;;;;;;;12.60;11.65;;;29.90;99.90;;;;;;5028618;28;20202;-54
2023/09/09 11:22:23;;;;;;;13.57;12.60;;;29.90;99.90;;;;;;5031680;28;20203;-54
2023/09/09 11:24:52;;;;;;;12.75;11.90;;;29.70;99.90;;;;;;5031087;28;20206;-54
2023/09/09 11:27:20;;;;;;;13.73;12.63;;;29.60;99.90;;;;;;5025020;28;20202;-54
2023/09/09 11:29:51;;;;;;;12.38;11.55;;;29.60;99.90;;;;;;5029232;28;20225;-54
2023/09/09 11:32:25;;;;;;;11.82;11.13;;;29.40;99.90;;;;;;5030539;28;20214;-54
2023/09/09 11:34:53;;;;;;;13.45;12.50;;;29.40;99.90;;;;;;5020978;28;20206;-54
2023/09/09 11:37:20;;;;;;;14.52;13.40;;;29.30;99.90;;;;;;5021011;28;20266;-54
2023/09/09 11:39:47;;;;;;;14.40;12.93;;;29.20;99.90;;;;;;5028310;28;20211;-54
2023/09/09 11:42:16;;;;;;;12.65;11.82;;;28.90;99.90;;;;;;5029377;28;20202;-54
2023/09/09 11:44:43;;;;;;;12.15;11.07;;;28.60;99.90;;;;;;5030602;28;20210;-54
2023/09/09 11:47:11;;;;;;;11.82;11.07;;;28.70;99.90;;;;;;5023863;28;20496;-54
2023/09/09 11:49:39;;;;;;;13.70;12.80;;;28.80;99.90;;;;;;5032288;28;20207;-54
2023/09/09 11:52:06;;;;;;;12.43;11.60;;;28.80;99.90;;;;;;5027134;28;20258;-54
2023/09/09 11:54:33;;;;;;;12.60;11.70;;;28.70;99.90;;;;;;5026755;28;20214;-53
2023/09/09 11:57:07;;;;;;;13.25;12.35;;;28.50;99.90;;;;;;5031852;28;20206;-54
2023/09/09 11:59:45;;;;;;;13.82;12.93;;;28.60;99.90;;;;;;5031755;28;20264;-54
2023/09/09 12:02:22;;;;;;;12.27;11.48;;;28.70;99.90;;;;;;5024156;28;20203;-54
2023/09/09 12:04:56;;;;;;;12.48;11.55;;;28.70;99.90;;;;;;5031248;28;20202;-54
2023/09/09 12:07:26;;;;;;;13.88;12.98;;;28.80;99.90;;;;;;5031514;28;20201;-54
2023/09/09 12:09:53;;;;;;;14.48;13.35;;;28.50;99.90;;;;;;5028329;28;20252;-54
2023/09/09 12:12:21;;;;;;;14.82;13.88;;;28.50;99.90;;;;;;5025108;28;20219;-54
2023/09/09 12:14:50;;;;;;;12.98;12.05;;;28.30;99.90;;;;;;5011554;28;20253;-54
2023/09/09 12:17:17;;;;;;;15.02;14.02;;;28.50;99.90;;;;;;5016088;28;20662;-53
2023/09/09 12:19:54;;;;;;;14.10;12.93;;;28.40;99.90;;;;;;5022432;28;20207;-54
2023/09/09 12:22:31;;;;;;;14.77;13.52;;;28.10;99.90;;;;;;5024671;28;20202;-54
2023/09/09 12:24:59;;;;;;;12.98;12.10;;;27.90;99.90;;;;;;5029131;28;20230;-54
2023/09/09 12:27:41;;;;;;;13.82;12.82;;;28.00;99.90;;;;;;5024615;28;20582;-54
2023/09/09 12:30:31;;;;;;;12.57;11.65;;;28.20;99.90;;;;;;5023059;28;20256;-54
2023/09/09 12:33:03;;;;;;;12.80;11.90;;;28.50;99.90;;;;;;5030163;28;20318;-54
2023/09/09 12:35:33;;;;;;;11.77;11.07;;;28.60;99.90;;;;;;5029941;28;20268;-54